createdAt,value
2022-10-11T00:00:12.249Z,604.0000
2022-10-11T00:01:14.450Z,607.0000
2022-10-11T00:02:16.619Z,605.0000
2022-10-11T00:03:18.830Z,603.0000
2022-10-11T00:04:21.046Z,605.0000
2022-10-11T00:05:23.236Z,607.0000
2022-10-11T00:06:23.278Z,604.0000
2022-10-11T00:07:25.557Z,603.0000
2022-10-11T00:08:27.728Z,603.0000
2022-10-11T00:09:29.951Z,608.0000
2022-10-11T00:10:32.313Z,606.0000
2022-10-11T00:11:34.402Z,610.0000
2022-10-11T00:12:36.638Z,612.0000
2022-10-11T00:13:38.883Z,610.0000
2022-10-11T00:14:41.161Z,609.0000
2022-10-11T00:15:43.562Z,604.0000
2022-10-11T00:17:32.872Z,598.0000
2022-10-11T00:18:34.946Z,593.0000
2022-10-11T00:19:37.085Z,592.0000
2022-10-11T00:20:39.212Z,589.0000
2022-10-11T00:21:41.391Z,593.0000
2022-10-11T00:22:43.520Z,590.0000
2022-10-11T00:23:45.687Z,590.0000
2022-10-11T00:24:47.872Z,590.0000
2022-10-11T00:25:50.064Z,589.0000
2022-10-11T00:26:52.257Z,590.0000
2022-10-11T00:27:54.415Z,592.0000
2022-10-11T00:28:56.702Z,591.0000
2022-10-11T00:29:58.841Z,593.0000
2022-10-11T00:31:01.446Z,590.0000
2022-10-11T00:32:03.320Z,591.0000
2022-10-11T00:33:05.503Z,591.0000
2022-10-11T00:34:07.728Z,590.0000
2022-10-11T00:35:09.956Z,590.0000
2022-10-11T00:36:12.179Z,587.0000
2022-10-11T00:37:14.519Z,593.0000
2022-10-11T00:38:16.609Z,590.0000
2022-10-11T00:39:18.817Z,592.0000
2022-10-11T00:40:21.040Z,592.0000
2022-10-11T00:41:23.242Z,591.0000
2022-10-11T00:42:23.335Z,592.0000
2022-10-11T00:43:25.496Z,590.0000
2022-10-11T00:44:27.684Z,593.0000
2022-10-11T00:45:29.848Z,593.0000
2022-10-11T00:46:32.079Z,591.0000
2022-10-11T00:47:34.317Z,593.0000
2022-10-11T00:48:36.530Z,595.0000
2022-10-11T00:49:38.745Z,594.0000
2022-10-11T00:50:40.948Z,594.0000
2022-10-11T00:51:43.110Z,595.0000
2022-10-11T00:52:45.352Z,594.0000
2022-10-11T00:53:47.541Z,595.0000
2022-10-11T00:54:49.733Z,596.0000
2022-10-11T00:55:51.932Z,597.0000
2022-10-11T00:56:54.137Z,598.0000
2022-10-11T00:57:56.398Z,595.0000
2022-10-11T00:58:56.427Z,596.0000
2022-10-11T00:59:58.652Z,596.0000
2022-10-11T01:01:00.933Z,595.0000
2022-10-11T01:02:03.025Z,593.0000
2022-10-11T01:03:05.212Z,593.0000
2022-10-11T01:04:07.357Z,593.0000
2022-10-11T01:05:28.138Z,598.0000
2022-10-11T01:06:11.736Z,596.0000
2022-10-11T01:07:13.986Z,591.0000
2022-10-11T01:08:16.240Z,591.0000
2022-10-11T01:09:18.408Z,589.0000
2022-10-11T01:10:20.591Z,589.0000
2022-10-11T01:11:22.841Z,587.0000
2022-10-11T01:12:25.105Z,586.0000
2022-10-11T01:13:27.593Z,587.0000
2022-10-11T01:14:27.478Z,591.0000
2022-10-11T01:15:29.741Z,591.0000
2022-10-11T01:16:32.020Z,590.0000
2022-10-11T01:17:34.319Z,589.0000
2022-10-11T01:18:36.615Z,590.0000
2022-10-11T01:19:38.949Z,586.0000
2022-10-11T01:20:41.141Z,588.0000
2022-10-11T01:21:41.281Z,584.0000
2022-10-11T01:22:43.562Z,585.0000
2022-10-11T01:23:45.858Z,584.0000
2022-10-11T01:24:47.994Z,585.0000
2022-10-11T01:25:50.235Z,585.0000
2022-10-11T01:26:52.502Z,582.0000
2022-10-11T01:27:54.771Z,581.0000
2022-10-11T01:28:57.085Z,579.0000
2022-10-11T01:29:59.174Z,582.0000
2022-10-11T01:31:01.407Z,583.0000
2022-10-11T01:32:03.670Z,584.0000
2022-10-11T01:33:03.771Z,581.0000
2022-10-11T01:34:06.006Z,581.0000
2022-10-11T01:35:08.249Z,583.0000
2022-10-11T01:36:10.509Z,582.0000
2022-10-11T01:37:12.777Z,581.0000
2022-10-11T01:38:15.041Z,580.0000
2022-10-11T01:39:17.309Z,583.0000
2022-10-11T01:40:19.496Z,584.0000
2022-10-11T01:41:21.743Z,587.0000
2022-10-11T01:42:21.848Z,587.0000
2022-10-11T01:43:24.112Z,588.0000
2022-10-11T01:44:26.426Z,589.0000
2022-10-11T01:45:28.645Z,590.0000
2022-10-11T01:46:30.921Z,587.0000
2022-10-11T01:47:33.198Z,585.0000
2022-10-11T01:48:35.501Z,583.0000
2022-10-11T01:49:37.783Z,580.0000
2022-10-11T01:51:23.117Z,576.0000
2022-10-11T01:52:25.140Z,579.0000
2022-10-11T01:53:27.303Z,580.0000
2022-10-11T01:54:44.089Z,580.0000
2022-10-11T01:55:31.608Z,585.0000
2022-10-11T01:56:33.752Z,586.0000
2022-10-11T01:57:33.788Z,586.0000
2022-10-11T01:58:35.980Z,588.0000
2022-10-11T01:59:38.183Z,587.0000
2022-10-11T02:00:40.423Z,588.0000
2022-10-11T02:01:42.675Z,587.0000
2022-10-11T02:02:44.826Z,584.0000
2022-10-11T02:03:47.060Z,584.0000
2022-10-11T02:04:49.245Z,579.0000
2022-10-11T02:05:51.471Z,581.0000
2022-10-11T02:06:53.641Z,582.0000
2022-10-11T02:07:55.832Z,584.0000
2022-10-11T02:08:58.061Z,586.0000
2022-10-11T02:10:00.266Z,587.0000
2022-10-11T02:11:02.462Z,587.0000
2022-10-11T02:12:04.626Z,586.0000
2022-10-11T02:13:06.837Z,578.0000
2022-10-11T02:14:09.038Z,577.0000
2022-10-11T02:15:11.291Z,574.0000
2022-10-11T02:16:11.437Z,573.0000
2022-10-11T02:17:13.654Z,568.0000
2022-10-11T02:18:15.900Z,569.0000
2022-10-11T02:19:18.175Z,573.0000
2022-10-11T02:20:20.428Z,573.0000
2022-10-11T02:21:22.731Z,574.0000
2022-10-11T02:22:24.982Z,574.0000
2022-10-11T02:23:25.091Z,572.0000
2022-10-11T02:24:27.336Z,569.0000
2022-10-11T02:25:29.590Z,570.0000
2022-10-11T02:26:31.871Z,572.0000
2022-10-11T02:27:34.103Z,563.0000
2022-10-11T02:28:36.428Z,564.0000
2022-10-11T02:29:38.596Z,563.0000
2022-10-11T02:30:40.861Z,565.0000
2022-10-11T02:31:43.151Z,565.0000
2022-10-11T02:32:45.359Z,565.0000
2022-10-11T02:33:45.451Z,569.0000
2022-10-11T02:34:47.695Z,566.0000
2022-10-11T02:35:49.896Z,567.0000
2022-10-11T02:36:52.151Z,567.0000
2022-10-11T02:37:54.343Z,567.0000
2022-10-11T02:38:56.575Z,566.0000
2022-10-11T02:39:58.795Z,566.0000
2022-10-11T02:41:01.021Z,565.0000
2022-10-11T02:42:03.278Z,567.0000
2022-10-11T02:43:05.463Z,569.0000
2022-10-11T02:44:07.634Z,568.0000
2022-10-11T02:45:09.812Z,568.0000
2022-10-11T02:46:12.037Z,569.0000
2022-10-11T02:47:14.308Z,570.0000
2022-10-11T02:48:14.356Z,570.0000
2022-10-11T02:49:16.581Z,572.0000
2022-10-11T02:50:18.850Z,572.0000
2022-10-11T02:51:21.111Z,572.0000
2022-10-11T02:52:23.413Z,574.0000
2022-10-11T02:53:25.675Z,576.0000
2022-10-11T02:54:27.980Z,573.0000
2022-10-11T02:55:28.118Z,573.0000
2022-10-11T02:56:30.379Z,567.0000
2022-10-11T02:57:32.685Z,566.0000
2022-10-11T02:58:34.919Z,568.0000
2022-10-11T02:59:37.152Z,568.0000
2022-10-11T03:00:39.380Z,571.0000
2022-10-11T03:01:41.676Z,574.0000
2022-10-11T03:02:43.876Z,576.0000
2022-10-11T03:03:46.098Z,574.0000
2022-10-11T03:04:48.390Z,576.0000
2022-10-11T03:05:48.546Z,578.0000
2022-10-11T03:06:50.786Z,577.0000
2022-10-11T03:07:53.082Z,571.0000
2022-10-11T03:08:55.311Z,575.0000
2022-10-11T03:09:57.566Z,576.0000
2022-10-11T03:10:59.802Z,579.0000
2022-10-11T03:12:02.090Z,581.0000
2022-10-11T03:13:04.400Z,583.0000
2022-10-11T03:14:04.485Z,583.0000
2022-10-11T03:15:06.736Z,586.0000
2022-10-11T03:16:09.527Z,585.0000
2022-10-11T03:17:34.459Z,587.0000
2022-10-11T03:18:13.543Z,593.0000
2022-10-11T03:19:19.342Z,597.0000
2022-10-11T03:20:17.979Z,600.0000
2022-10-11T03:21:20.246Z,599.0000
2022-10-11T03:22:22.493Z,600.0000
2022-10-11T03:23:22.645Z,602.0000
2022-10-11T03:24:24.927Z,605.0000
2022-10-11T03:25:27.236Z,609.0000
2022-10-11T03:26:29.523Z,613.0000
2022-10-11T03:27:31.854Z,614.0000
2022-10-11T03:28:34.231Z,617.0000
2022-10-11T03:29:34.270Z,618.0000
2022-10-11T03:30:36.577Z,618.0000
2022-10-11T03:31:38.874Z,617.0000
2022-10-11T03:32:41.170Z,617.0000
2022-10-11T03:33:43.467Z,620.0000
2022-10-11T03:34:45.753Z,621.0000
2022-10-11T03:35:48.049Z,624.0000
2022-10-11T03:36:48.223Z,622.0000
2022-10-11T03:37:50.462Z,622.0000
2022-10-11T03:38:52.799Z,625.0000
2022-10-11T03:39:55.035Z,625.0000
2022-10-11T03:40:57.331Z,625.0000
2022-10-11T03:41:59.610Z,623.0000
2022-10-11T03:43:01.866Z,626.0000
2022-10-11T03:44:04.148Z,628.0000
2022-10-11T03:45:04.220Z,628.0000
2022-10-11T03:46:06.951Z,626.0000
2022-10-11T03:47:08.732Z,630.0000
2022-10-11T03:48:10.977Z,630.0000
2022-10-11T03:49:13.259Z,629.0000
2022-10-11T03:50:15.486Z,628.0000
2022-10-11T03:51:17.736Z,624.0000
2022-10-11T03:52:19.999Z,626.0000
2022-10-11T03:53:22.213Z,628.0000
2022-10-11T03:54:22.329Z,628.0000
2022-10-11T03:55:24.564Z,628.0000
2022-10-11T03:56:26.821Z,630.0000
2022-10-11T03:57:29.056Z,629.0000
2022-10-11T03:58:31.311Z,633.0000
2022-10-11T03:59:33.566Z,632.0000
2022-10-11T04:00:35.809Z,630.0000
2022-10-11T04:01:38.100Z,628.0000
2022-10-11T04:02:40.284Z,629.0000
2022-10-11T04:03:40.376Z,628.0000
2022-10-11T04:04:42.682Z,630.0000
2022-10-11T04:05:44.942Z,631.0000
2022-10-11T04:06:47.229Z,634.0000
2022-10-11T04:07:49.532Z,635.0000
2022-10-11T04:08:51.788Z,636.0000
2022-10-11T04:09:54.107Z,639.0000
2022-10-11T04:10:56.341Z,641.0000
2022-10-11T04:11:56.480Z,640.0000
2022-10-11T04:12:58.753Z,638.0000
2022-10-11T04:14:01.032Z,637.0000
2022-10-11T04:15:03.381Z,635.0000
2022-10-11T04:16:06.126Z,634.0000
2022-10-11T04:17:07.879Z,634.0000
2022-10-11T04:18:10.161Z,636.0000
2022-10-11T04:19:10.292Z,633.0000
2022-10-11T04:20:12.595Z,630.0000
2022-10-11T04:21:14.846Z,630.0000
2022-10-11T04:22:17.118Z,630.0000
2022-10-11T04:23:19.423Z,632.0000
2022-10-11T04:24:21.691Z,630.0000
2022-10-11T04:25:23.952Z,627.0000
2022-10-11T04:26:26.070Z,629.0000
2022-10-11T04:27:28.228Z,630.0000
2022-10-11T04:28:30.431Z,630.0000
2022-10-11T04:29:33.020Z,627.0000
2022-10-11T04:30:34.802Z,630.0000
2022-10-11T04:31:36.949Z,626.0000
2022-10-11T04:32:37.033Z,627.0000
2022-10-11T04:33:39.291Z,627.0000
2022-10-11T04:34:41.426Z,628.0000
2022-10-11T04:35:43.754Z,628.0000
2022-10-11T04:36:49.764Z,628.0000
2022-10-11T04:37:48.183Z,628.0000
2022-10-11T04:38:50.449Z,628.0000
2022-10-11T04:39:52.687Z,630.0000
2022-10-11T04:40:55.027Z,629.0000
2022-10-11T04:41:55.123Z,627.0000
2022-10-11T04:42:57.380Z,629.0000
2022-10-11T04:43:59.645Z,630.0000
2022-10-11T04:45:01.868Z,625.0000
2022-10-11T04:46:04.618Z,626.0000
2022-10-11T04:47:06.409Z,625.0000
2022-10-11T04:48:08.650Z,623.0000
2022-10-11T04:49:10.937Z,622.0000
2022-10-11T04:50:13.215Z,622.0000
2022-10-11T04:51:13.379Z,621.0000
2022-10-11T04:52:15.623Z,620.0000
2022-10-11T04:53:17.906Z,614.0000
2022-10-11T04:54:20.188Z,613.0000
2022-10-11T04:55:22.442Z,614.0000
2022-10-11T04:56:24.763Z,615.0000
2022-10-11T04:57:26.994Z,615.0000
2022-10-11T04:58:29.285Z,615.0000
2022-10-11T04:59:29.349Z,616.0000
2022-10-11T05:00:31.511Z,617.0000
2022-10-11T05:01:33.864Z,618.0000
2022-10-11T05:02:36.063Z,619.0000
2022-10-11T05:03:37.177Z,612.0000
2022-10-11T05:04:38.383Z,611.0000
2022-10-11T05:05:40.628Z,613.0000
2022-10-11T05:06:42.895Z,613.0000
2022-10-11T05:07:45.087Z,614.0000
2022-10-11T05:08:47.276Z,611.0000
2022-10-11T05:09:49.525Z,610.0000
2022-10-11T05:10:51.717Z,610.0000
2022-10-11T05:11:53.956Z,612.0000
2022-10-11T05:12:56.078Z,612.0000
2022-10-11T05:13:58.267Z,612.0000
2022-10-11T05:15:00.484Z,610.0000
2022-10-11T05:16:04.893Z,611.0000
2022-10-11T05:17:04.948Z,615.0000
2022-10-11T05:18:07.063Z,615.0000
2022-10-11T05:19:09.283Z,615.0000
2022-10-11T05:20:11.509Z,616.0000
2022-10-11T05:21:11.568Z,618.0000
2022-10-11T05:22:13.804Z,616.0000
2022-10-11T05:23:16.033Z,616.0000
2022-10-11T05:24:18.276Z,615.0000
2022-10-11T05:25:20.571Z,617.0000
2022-10-11T05:26:22.821Z,615.0000
2022-10-11T05:27:25.114Z,614.0000
2022-10-11T05:28:27.454Z,616.0000
2022-10-11T05:29:29.617Z,614.0000
2022-10-11T05:30:31.879Z,615.0000
2022-10-11T05:31:31.963Z,615.0000
2022-10-11T05:32:34.242Z,618.0000
2022-10-11T05:33:36.493Z,618.0000
2022-10-11T05:34:38.738Z,621.0000
2022-10-11T05:35:40.990Z,622.0000
2022-10-11T05:36:43.257Z,621.0000
2022-10-11T05:37:45.497Z,619.0000
2022-10-11T05:38:47.680Z,616.0000
2022-10-11T05:39:49.914Z,618.0000
2022-10-11T05:40:50.027Z,620.0000
2022-10-11T05:41:52.233Z,623.0000
2022-10-11T05:42:54.504Z,624.0000
2022-10-11T05:43:56.716Z,627.0000
2022-10-11T05:44:58.911Z,630.0000
2022-10-11T05:46:01.111Z,627.0000
2022-10-11T05:47:03.266Z,627.0000
2022-10-11T05:48:05.526Z,628.0000
2022-10-11T05:49:07.715Z,632.0000
2022-10-11T05:50:09.976Z,633.0000
2022-10-11T05:51:12.201Z,637.0000
2022-10-11T05:52:14.456Z,639.0000
2022-10-11T05:53:14.606Z,640.0000
2022-10-11T05:54:16.852Z,643.0000
2022-10-11T05:55:19.101Z,648.0000
2022-10-11T05:56:21.391Z,644.0000
2022-10-11T05:57:23.539Z,642.0000
2022-10-11T05:58:25.778Z,642.0000
2022-10-11T05:59:27.976Z,641.0000
2022-10-11T06:00:30.204Z,643.0000
2022-10-11T06:01:32.661Z,644.0000
2022-10-11T06:03:47.772Z,646.0000
2022-10-11T06:04:49.864Z,645.0000
2022-10-11T06:05:55.821Z,644.0000
2022-10-11T06:06:52.181Z,641.0000
2022-10-11T06:07:52.279Z,639.0000
2022-10-11T06:08:54.606Z,638.0000
2022-10-11T06:09:56.778Z,635.0000
2022-10-11T06:10:59.006Z,634.0000
2022-10-11T06:12:01.214Z,634.0000
2022-10-11T06:13:03.424Z,635.0000
2022-10-11T06:14:05.692Z,638.0000
2022-10-11T06:15:07.914Z,636.0000
2022-10-11T06:16:10.109Z,632.0000
2022-10-11T06:17:12.281Z,634.0000
2022-10-11T06:18:14.515Z,631.0000
2022-10-11T06:19:16.771Z,631.0000
2022-10-11T06:20:16.832Z,629.0000
2022-10-11T06:21:19.071Z,631.0000
2022-10-11T06:22:21.310Z,630.0000
2022-10-11T06:23:23.546Z,629.0000
2022-10-11T06:24:25.822Z,631.0000
2022-10-11T06:25:28.042Z,631.0000
2022-10-11T06:26:30.282Z,631.0000
2022-10-11T06:27:32.547Z,633.0000
2022-10-11T06:28:34.851Z,633.0000
2022-10-11T06:29:34.892Z,631.0000
2022-10-11T06:30:37.105Z,631.0000
2022-10-11T06:31:39.361Z,631.0000
2022-10-11T06:32:41.620Z,630.0000
2022-10-11T06:33:43.862Z,629.0000
2022-10-11T06:34:46.169Z,627.0000
2022-10-11T06:35:48.328Z,627.0000
2022-10-11T06:36:50.513Z,622.0000
2022-10-11T06:37:52.735Z,620.0000
2022-10-11T06:38:52.887Z,618.0000
2022-10-11T06:39:55.235Z,619.0000
2022-10-11T06:40:57.411Z,619.0000
2022-10-11T06:41:59.658Z,622.0000
2022-10-11T06:43:01.961Z,622.0000
2022-10-11T06:44:04.246Z,620.0000
2022-10-11T06:45:06.560Z,622.0000
2022-10-11T06:46:08.990Z,622.0000
2022-10-11T06:47:11.066Z,624.0000
2022-10-11T06:48:11.149Z,621.0000
2022-10-11T06:49:13.394Z,622.0000
2022-10-11T06:50:15.657Z,622.0000
2022-10-11T06:51:17.873Z,623.0000
2022-10-11T06:52:20.119Z,624.0000
2022-10-11T06:53:22.363Z,626.0000
2022-10-11T06:54:24.603Z,626.0000
2022-10-11T06:55:26.871Z,627.0000
2022-10-11T06:56:29.099Z,627.0000
2022-10-11T06:57:31.326Z,628.0000
2022-10-11T06:58:31.446Z,628.0000
2022-10-11T06:59:33.657Z,630.0000
2022-10-11T07:00:35.889Z,621.0000
2022-10-11T07:01:38.273Z,623.0000
2022-10-11T07:02:40.365Z,625.0000
2022-10-11T07:03:42.605Z,624.0000
2022-10-11T07:04:44.848Z,626.0000
2022-10-11T07:05:47.147Z,624.0000
2022-10-11T07:06:49.346Z,625.0000
2022-10-11T07:07:51.591Z,623.0000
2022-10-11T07:08:53.796Z,622.0000
2022-10-11T07:09:53.881Z,621.0000
2022-10-11T07:10:56.160Z,622.0000
2022-10-11T07:11:58.350Z,621.0000
2022-10-11T07:13:00.568Z,619.0000
2022-10-11T07:14:02.699Z,619.0000
2022-10-11T07:15:04.899Z,616.0000
2022-10-11T07:16:07.826Z,618.0000
2022-10-11T07:17:09.365Z,619.0000
2022-10-11T07:18:11.607Z,617.0000
2022-10-11T07:19:13.859Z,614.0000
2022-10-11T07:20:13.963Z,612.0000
2022-10-11T07:21:16.211Z,613.0000
2022-10-11T07:22:18.377Z,612.0000
2022-10-11T07:23:20.566Z,611.0000
2022-10-11T07:24:22.814Z,614.0000
2022-10-11T07:25:25.025Z,613.0000
2022-10-11T07:26:27.247Z,609.0000
2022-10-11T07:27:29.417Z,608.0000
2022-10-11T07:28:31.807Z,609.0000
2022-10-11T07:29:33.952Z,609.0000
2022-10-11T07:30:36.167Z,608.0000
2022-10-11T07:31:38.610Z,604.0000
2022-10-11T07:32:40.666Z,601.0000
2022-10-11T07:33:40.761Z,602.0000
2022-10-11T07:34:42.975Z,601.0000
2022-10-11T07:35:48.401Z,600.0000
2022-10-11T07:36:47.477Z,596.0000
2022-10-11T07:37:49.703Z,597.0000
2022-10-11T07:38:51.959Z,592.0000
2022-10-11T07:39:54.205Z,592.0000
2022-10-11T07:40:56.455Z,592.0000
2022-10-11T07:41:58.747Z,594.0000
2022-10-11T07:43:00.997Z,591.0000
2022-10-11T07:44:01.140Z,591.0000
2022-10-11T07:45:03.371Z,591.0000
2022-10-11T07:46:06.112Z,588.0000
2022-10-11T07:47:11.262Z,589.0000
2022-10-11T07:48:09.954Z,589.0000
2022-10-11T07:49:12.148Z,588.0000
2022-10-11T07:50:14.379Z,585.0000
2022-10-11T07:51:16.623Z,583.0000
2022-10-11T07:52:18.900Z,583.0000
2022-10-11T07:53:21.094Z,585.0000
2022-10-11T07:54:23.279Z,586.0000
2022-10-11T07:55:23.389Z,588.0000
2022-10-11T07:56:25.614Z,589.0000
2022-10-11T07:57:27.882Z,589.0000
2022-10-11T07:58:30.114Z,590.0000
2022-10-11T07:59:32.400Z,589.0000
2022-10-11T08:00:34.681Z,590.0000
2022-10-11T08:01:37.094Z,592.0000
2022-10-11T08:02:39.259Z,594.0000
2022-10-11T08:03:41.533Z,596.0000
2022-10-11T08:04:41.684Z,591.0000
2022-10-11T08:05:43.985Z,590.0000
2022-10-11T08:06:50.946Z,590.0000
2022-10-11T08:07:48.628Z,589.0000
2022-10-11T08:08:50.901Z,589.0000
2022-10-11T08:09:53.208Z,588.0000
2022-10-11T08:10:53.375Z,588.0000
2022-10-11T08:11:55.684Z,586.0000
2022-10-11T08:13:03.370Z,588.0000
2022-10-11T08:14:00.289Z,582.0000
2022-10-11T08:15:02.561Z,582.0000
2022-10-11T08:16:05.237Z,583.0000
2022-10-11T08:17:04.977Z,585.0000
2022-10-11T08:18:07.298Z,583.0000
2022-10-11T08:19:07.436Z,584.0000
2022-10-11T08:20:09.778Z,584.0000
2022-10-11T08:21:12.039Z,585.0000
2022-10-11T08:22:14.359Z,582.0000
2022-10-11T08:23:14.531Z,580.0000
2022-10-11T08:24:16.783Z,582.0000
2022-10-11T08:25:19.075Z,585.0000
2022-10-11T08:26:21.376Z,587.0000
2022-10-11T08:27:23.685Z,587.0000
2022-10-11T08:28:26.140Z,587.0000
2022-10-11T08:29:26.138Z,587.0000
2022-10-11T08:30:28.417Z,587.0000
2022-10-11T08:31:30.728Z,583.0000
2022-10-11T08:32:33.008Z,577.0000
2022-10-11T08:33:35.302Z,576.0000
2022-10-11T08:34:37.537Z,575.0000
2022-10-11T08:35:39.762Z,577.0000
2022-10-11T08:36:41.972Z,576.0000
2022-10-11T08:37:44.221Z,576.0000
2022-10-11T08:38:44.329Z,575.0000
2022-10-11T08:39:46.510Z,574.0000
2022-10-11T08:40:48.757Z,576.0000
2022-10-11T08:41:51.018Z,571.0000
2022-10-11T08:42:53.245Z,573.0000
2022-10-11T08:43:55.516Z,575.0000
2022-10-11T08:45:13.102Z,573.0000
2022-10-11T08:45:59.889Z,576.0000
2022-10-11T08:47:02.167Z,578.0000
2022-10-11T08:48:04.394Z,579.0000
2022-10-11T08:49:06.681Z,580.0000
2022-10-11T08:50:06.757Z,583.0000
2022-10-11T08:51:09.009Z,582.0000
2022-10-11T08:52:11.247Z,579.0000
2022-10-11T08:53:13.451Z,578.0000
2022-10-11T08:54:15.709Z,575.0000
2022-10-11T08:55:17.917Z,574.0000
2022-10-11T08:56:20.193Z,574.0000
2022-10-11T08:57:22.471Z,574.0000
2022-10-11T08:58:24.727Z,573.0000
2022-10-11T08:59:24.878Z,574.0000
2022-10-11T09:00:27.145Z,575.0000
2022-10-11T09:01:29.462Z,573.0000
2022-10-11T09:02:49.255Z,572.0000
2022-10-11T09:03:33.850Z,576.0000
2022-10-11T09:04:36.124Z,577.0000
2022-10-11T09:05:38.315Z,573.0000
2022-10-11T09:06:40.540Z,570.0000
2022-10-11T09:07:42.759Z,570.0000
2022-10-11T09:08:44.922Z,571.0000
2022-10-11T09:09:47.149Z,572.0000
2022-10-11T09:10:49.305Z,570.0000
2022-10-11T09:12:47.394Z,560.0000
2022-10-11T09:13:49.481Z,553.0000
2022-10-11T09:14:51.718Z,553.0000
2022-10-11T09:15:53.882Z,555.0000
2022-10-11T09:16:56.103Z,555.0000
2022-10-11T09:17:58.369Z,556.0000
2022-10-11T09:19:00.599Z,557.0000
2022-10-11T09:20:02.909Z,555.0000
2022-10-11T09:21:05.025Z,556.0000
2022-10-11T09:22:07.251Z,561.0000
2022-10-11T09:23:09.483Z,561.0000
2022-10-11T09:24:09.538Z,561.0000
2022-10-11T09:25:11.791Z,561.0000
2022-10-11T09:26:13.981Z,563.0000
2022-10-11T09:27:16.198Z,563.0000
2022-10-11T09:28:18.553Z,560.0000
2022-10-11T09:29:20.631Z,560.0000
2022-10-11T09:30:22.924Z,558.0000
2022-10-11T09:31:25.159Z,557.0000
2022-10-11T09:32:27.424Z,556.0000
2022-10-11T09:33:29.712Z,556.0000
2022-10-11T09:34:31.972Z,554.0000
2022-10-11T09:35:32.123Z,550.0000
2022-10-11T09:36:34.385Z,553.0000
2022-10-11T09:37:36.626Z,555.0000
2022-10-11T09:38:38.858Z,556.0000
2022-10-11T09:39:41.082Z,551.0000
2022-10-11T09:40:43.565Z,549.0000
2022-10-11T09:41:45.633Z,548.0000
2022-10-11T09:42:47.864Z,545.0000
2022-10-11T09:43:50.113Z,548.0000
2022-10-11T09:44:52.397Z,544.0000
2022-10-11T09:45:54.696Z,540.0000
2022-10-11T09:46:56.937Z,539.0000
2022-10-11T09:47:59.152Z,539.0000
2022-10-11T09:49:01.388Z,542.0000
2022-10-11T09:50:03.598Z,540.0000
2022-10-11T09:51:05.879Z,537.0000
2022-10-11T09:52:08.018Z,534.0000
2022-10-11T09:53:10.239Z,532.0000
2022-10-11T09:54:12.457Z,533.0000
2022-10-11T09:55:15.350Z,531.0000
2022-10-11T09:56:14.747Z,535.0000
2022-10-11T09:57:16.942Z,535.0000
2022-10-11T09:58:19.174Z,534.0000
2022-10-11T09:59:21.405Z,536.0000
2022-10-11T10:00:23.678Z,535.0000
2022-10-11T10:01:25.985Z,535.0000
2022-10-11T10:02:28.221Z,535.0000
2022-10-11T10:03:30.491Z,536.0000
2022-10-11T10:04:32.777Z,536.0000
2022-10-11T10:05:32.872Z,532.0000
2022-10-11T10:06:35.164Z,535.0000
2022-10-11T10:07:37.407Z,535.0000
2022-10-11T10:08:39.666Z,535.0000
2022-10-11T10:09:41.940Z,534.0000
2022-10-11T10:10:44.169Z,532.0000
2022-10-11T10:11:46.421Z,533.0000
2022-10-11T10:12:48.614Z,532.0000
2022-10-11T10:13:50.841Z,530.0000
2022-10-11T10:14:53.053Z,531.0000
2022-10-11T10:15:55.170Z,530.0000
2022-10-11T10:16:57.367Z,534.0000
2022-10-11T10:17:57.408Z,532.0000
2022-10-11T10:18:59.607Z,531.0000
2022-10-11T10:20:01.838Z,530.0000
2022-10-11T10:21:04.094Z,530.0000
2022-10-11T10:23:38.693Z,516.0000
2022-10-11T10:24:40.800Z,518.0000
2022-10-11T10:25:43.812Z,514.0000
2022-10-11T10:26:45.209Z,513.0000
2022-10-11T10:27:47.437Z,518.0000
2022-10-11T10:28:49.752Z,515.0000
2022-10-11T10:29:51.841Z,516.0000
2022-10-11T10:30:54.063Z,515.0000
2022-10-11T10:32:14.214Z,516.0000
2022-10-11T10:32:56.306Z,519.0000
2022-10-11T10:33:58.538Z,521.0000
2022-10-11T10:35:00.679Z,518.0000
2022-10-11T10:36:05.286Z,517.0000
2022-10-11T10:36:43.531Z,517.0000
2022-10-11T10:37:45.649Z,516.0000
2022-10-11T10:38:52.295Z,514.0000
2022-10-11T10:39:49.919Z,512.0000
2022-10-11T10:40:52.007Z,514.0000
2022-10-11T10:41:56.205Z,511.0000
2022-10-11T10:42:58.329Z,511.0000
2022-10-11T10:44:00.463Z,510.0000
2022-10-11T10:45:06.330Z,514.0000
2022-10-11T10:46:05.145Z,513.0000
2022-10-11T10:47:04.622Z,512.0000
2022-10-11T10:48:06.744Z,505.0000
2022-10-11T10:50:08.927Z,510.0000
2022-10-11T10:51:11.032Z,510.0000
2022-10-11T10:52:13.133Z,509.0000
2022-10-11T10:53:17.334Z,512.0000
2022-10-11T10:54:19.469Z,510.0000
2022-10-11T10:55:21.613Z,510.0000
2022-10-11T10:56:21.592Z,509.0000
2022-10-11T10:57:23.739Z,509.0000
2022-10-11T10:58:25.920Z,509.0000
2022-10-11T10:59:28.082Z,508.0000
2022-10-11T11:00:30.266Z,510.0000
2022-10-11T11:01:32.442Z,514.0000
2022-10-11T11:02:40.746Z,517.0000
2022-10-11T11:03:38.781Z,521.0000
2022-10-11T11:04:40.908Z,526.0000
2022-10-11T11:05:40.930Z,524.0000
2022-10-11T11:06:43.076Z,526.0000
2022-10-11T11:07:45.208Z,527.0000
2022-10-11T11:08:47.367Z,529.0000
2022-10-11T11:09:49.492Z,530.0000
2022-10-11T11:10:53.801Z,525.0000
2022-10-11T11:11:53.723Z,526.0000
2022-10-11T11:12:58.006Z,520.0000
2022-10-11T11:13:55.867Z,514.0000
2022-10-11T11:14:58.111Z,516.0000
2022-10-11T11:16:00.308Z,519.0000
2022-10-11T11:17:02.497Z,519.0000
2022-10-11T11:18:04.707Z,515.0000
2022-10-11T11:19:06.882Z,510.0000
2022-10-11T11:20:09.079Z,506.0000
2022-10-11T11:21:11.511Z,509.0000
2022-10-11T11:22:13.554Z,510.0000
2022-10-11T11:23:15.756Z,509.0000
2022-10-11T11:24:17.947Z,518.0000
2022-10-11T11:25:20.131Z,517.0000
2022-10-11T11:26:22.364Z,517.0000
2022-10-11T11:27:24.558Z,516.0000
2022-10-11T11:28:26.915Z,516.0000
2022-10-11T11:29:26.946Z,517.0000
2022-10-11T11:30:31.346Z,518.0000
2022-10-11T11:31:31.469Z,518.0000
2022-10-11T11:32:33.679Z,515.0000
2022-10-11T11:33:35.925Z,512.0000
2022-10-11T11:34:38.173Z,510.0000
2022-10-11T11:35:40.370Z,508.0000
2022-10-11T11:36:42.607Z,505.0000
2022-10-11T11:37:44.801Z,499.0000
2022-10-11T11:38:47.080Z,499.0000
2022-10-11T11:39:47.146Z,496.0000
2022-10-11T11:40:49.405Z,496.0000
2022-10-11T11:41:51.718Z,495.0000
2022-10-11T11:42:54.142Z,495.0000
2022-10-11T11:43:56.248Z,495.0000
2022-10-11T11:44:58.545Z,490.0000
2022-10-11T11:46:00.832Z,485.0000
2022-10-11T11:47:03.141Z,485.0000
2022-10-11T11:48:03.182Z,483.0000
2022-10-11T11:49:08.539Z,485.0000
2022-10-11T11:50:07.748Z,490.0000
2022-10-11T11:51:10.036Z,493.0000
2022-10-11T11:52:12.352Z,497.0000
2022-10-11T11:53:14.627Z,497.0000
2022-10-11T11:54:16.886Z,496.0000
2022-10-11T11:55:19.201Z,494.0000
2022-10-11T11:56:19.277Z,494.0000
2022-10-11T11:57:21.611Z,493.0000
2022-10-11T11:58:23.829Z,493.0000
2022-10-11T11:59:26.075Z,488.0000
2022-10-11T12:00:28.323Z,490.0000
2022-10-11T12:01:31.734Z,496.0000
2022-10-11T12:02:32.823Z,493.0000
2022-10-11T12:03:37.973Z,491.0000
2022-10-11T12:04:35.187Z,487.0000
2022-10-11T12:05:37.455Z,486.0000
2022-10-11T12:06:52.441Z,486.0000
2022-10-11T12:07:42.001Z,491.0000
2022-10-11T12:08:44.182Z,493.0000
2022-10-11T12:09:46.375Z,492.0000
2022-10-11T12:10:48.571Z,489.0000
2022-10-11T12:11:50.755Z,484.0000
2022-10-11T12:12:52.982Z,486.0000
2022-10-11T12:13:55.172Z,486.0000